createdAt,value
2018-12-15T00:02:55.772Z,14.03
2018-12-15T00:07:34.535Z,12.93
2018-12-15T00:12:13.335Z,12.93
2018-12-15T00:16:52.120Z,13.57
2018-12-15T00:21:30.904Z,13.87
2018-12-15T00:26:09.589Z,13.50
2018-12-15T00:30:48.372Z,13.83
2018-12-15T00:35:27.338Z,13.77
2018-12-15T00:40:06.199Z,14.70
2018-12-15T00:44:44.940Z,13.10
2018-12-15T00:49:23.655Z,13.87
2018-12-15T00:54:02.457Z,14.20
2018-12-15T00:58:41.196Z,13.93
2018-12-15T01:03:20.011Z,13.87
2018-12-15T01:07:58.890Z,14.50
2018-12-15T01:12:37.616Z,14.00
2018-12-15T01:17:20.430Z,14.67
2018-12-15T01:21:57.295Z,14.40
2018-12-15T01:26:36.121Z,13.80
2018-12-15T01:31:14.881Z,14.10
2018-12-15T01:35:53.679Z,14.13
2018-12-15T01:40:32.447Z,14.27
2018-12-15T01:45:11.135Z,14.53
2018-12-15T01:49:49.840Z,14.37
2018-12-15T01:54:28.570Z,15.23
2018-12-15T01:59:07.507Z,13.80
2018-12-15T02:03:46.283Z,14.13
2018-12-15T02:08:24.976Z,14.33
2018-12-15T02:13:03.984Z,14.93
2018-12-15T02:17:42.833Z,15.17
2018-12-15T02:22:21.687Z,13.97
2018-12-15T02:27:00.334Z,13.40
2018-12-15T02:31:39.189Z,13.97
2018-12-15T02:36:18.396Z,13.80
2018-12-15T02:40:57.217Z,15.50
2018-12-15T02:45:35.940Z,14.27
2018-12-15T02:50:14.628Z,13.33
2018-12-15T02:54:53.382Z,14.20
2018-12-15T02:59:32.263Z,14.47
2018-12-15T03:04:11.150Z,14.43
2018-12-15T03:08:50.190Z,14.07
2018-12-15T03:13:28.916Z,14.13
2018-12-15T03:18:07.602Z,14.43
2018-12-15T03:22:46.351Z,13.40
2018-12-15T03:27:25.164Z,14.27
2018-12-15T03:32:04.021Z,13.17
2018-12-15T03:36:42.869Z,13.50
2018-12-15T03:41:21.654Z,13.63
2018-12-15T03:46:00.518Z,13.10
2018-12-15T03:50:39.351Z,13.47
2018-12-15T03:55:18.110Z,13.90
2018-12-15T03:59:56.971Z,14.30
2018-12-15T04:04:35.980Z,13.70
2018-12-15T04:09:14.666Z,14.50
2018-12-15T04:13:53.862Z,15.27
2018-12-15T04:18:32.678Z,14.23
2018-12-15T04:23:11.462Z,12.33
2018-12-15T04:27:50.275Z,13.50
2018-12-15T04:32:29.076Z,13.90
2018-12-15T04:37:07.999Z,15.20
2018-12-15T04:41:46.756Z,13.63
2018-12-15T04:46:25.580Z,14.60
2018-12-15T04:51:04.263Z,13.33
2018-12-15T04:55:43.087Z,13.13
2018-12-15T05:00:21.857Z,14.10
2018-12-15T05:05:00.883Z,13.90
2018-12-15T05:09:39.496Z,13.17
2018-12-15T05:14:18.519Z,13.23
2018-12-15T05:18:57.288Z,12.53
2018-12-15T05:23:36.034Z,13.63
2018-12-15T05:28:14.761Z,13.20
2018-12-15T05:32:53.597Z,12.97
2018-12-15T05:37:32.608Z,13.07
2018-12-15T05:42:11.453Z,13.73
2018-12-15T05:46:50.201Z,13.63
2018-12-15T05:51:28.992Z,12.43
2018-12-15T05:56:07.842Z,13.10
2018-12-15T06:00:46.631Z,13.10
2018-12-15T06:05:25.653Z,12.97
2018-12-15T06:10:04.710Z,14.13
2018-12-15T06:14:43.409Z,12.73
2018-12-15T06:19:22.217Z,11.53
2018-12-15T06:24:01.108Z,13.00
2018-12-15T06:28:39.845Z,13.50
2018-12-15T06:33:18.740Z,13.57
2018-12-15T06:37:57.544Z,13.93
2018-12-15T06:42:36.429Z,13.57
2018-12-15T06:47:15.332Z,12.43
2018-12-15T06:51:54.109Z,12.60
2018-12-15T06:56:32.915Z,13.03
2018-12-15T07:01:11.774Z,14.60
2018-12-15T07:05:50.494Z,14.90
2018-12-15T07:10:29.304Z,12.90
2018-12-15T07:15:08.338Z,15.33
2018-12-15T07:19:47.513Z,13.10
2018-12-15T07:24:26.401Z,14.80
2018-12-15T07:29:05.384Z,14.47
2018-12-15T07:33:44.252Z,14.60
2018-12-15T07:38:23.111Z,15.10
2018-12-15T07:43:01.768Z,14.70
2018-12-15T07:47:40.495Z,16.37
2018-12-15T07:52:19.394Z,15.67
2018-12-15T07:56:58.022Z,15.00
2018-12-15T08:01:36.838Z,15.30
2018-12-15T08:06:15.591Z,16.00
2018-12-15T08:11:00.164Z,14.40
2018-12-15T08:15:38.878Z,14.63
2018-12-15T08:20:23.381Z,15.67
2018-12-15T08:25:03.884Z,13.87
2018-12-15T08:29:42.638Z,14.10
2018-12-15T08:34:21.391Z,15.70
2018-12-15T08:39:00.171Z,13.50
2018-12-15T08:43:39.390Z,15.23
2018-12-15T08:48:18.105Z,15.60
2018-12-15T08:52:56.973Z,14.07
2018-12-15T08:57:35.845Z,13.90
2018-12-15T09:02:14.668Z,13.93
2018-12-15T09:06:53.433Z,13.13
2018-12-15T09:11:32.346Z,14.10
2018-12-15T09:16:11.063Z,13.77
2018-12-15T09:20:50.118Z,13.47
2018-12-15T09:25:28.840Z,14.00
2018-12-15T09:30:07.961Z,12.60
2018-12-15T09:34:46.814Z,13.77
2018-12-15T09:39:25.481Z,11.30
2018-12-15T09:44:04.412Z,14.37
2018-12-15T09:48:43.196Z,14.00
2018-12-15T09:53:22.087Z,14.80
2018-12-15T09:58:01.056Z,13.33
2018-12-15T10:02:39.860Z,14.40
2018-12-15T10:07:18.560Z,14.10
2018-12-15T10:11:57.531Z,13.83
2018-12-15T10:16:36.340Z,14.23
2018-12-15T10:21:15.259Z,13.47
2018-12-15T10:25:54.056Z,13.83
2018-12-15T10:30:38.631Z,14.57
2018-12-15T10:35:17.511Z,14.27
2018-12-15T10:39:56.214Z,14.20
2018-12-15T10:44:35.005Z,14.23
2018-12-15T10:49:14.019Z,14.87
2018-12-15T10:53:52.813Z,14.03
2018-12-15T10:58:31.561Z,15.23
2018-12-15T11:03:10.320Z,13.40
2018-12-15T11:07:48.988Z,14.03
2018-12-15T11:12:27.867Z,13.63
2018-12-15T11:17:06.598Z,14.73
2018-12-15T11:21:45.348Z,14.40
2018-12-15T11:26:29.868Z,15.47
2018-12-15T11:31:08.658Z,15.63
2018-12-15T11:35:47.659Z,14.73
2018-12-15T11:40:26.472Z,13.47
2018-12-15T11:45:06.010Z,14.13
2018-12-15T11:49:44.713Z,14.23
2018-12-15T11:54:23.481Z,14.67
2018-12-15T11:59:02.167Z,12.53
2018-12-15T12:03:40.828Z,13.10
2018-12-15T12:08:19.611Z,13.53
2018-12-15T12:12:58.696Z,14.10
2018-12-15T12:17:37.308Z,14.03
2018-12-15T12:22:16.821Z,12.17
2018-12-15T12:26:55.390Z,13.83
2018-12-15T12:31:34.298Z,13.83
2018-12-15T12:36:13.160Z,14.03
2018-12-15T12:40:52.049Z,15.13
2018-12-15T12:45:30.991Z,12.63
2018-12-15T12:50:09.759Z,13.67
2018-12-15T12:54:48.412Z,12.23
2018-12-15T12:59:27.169Z,13.87
2018-12-15T13:04:05.992Z,14.20
2018-12-15T13:08:44.796Z,13.37
2018-12-15T13:13:23.930Z,13.40
2018-12-15T13:18:02.767Z,14.67
2018-12-15T13:22:41.663Z,14.53
2018-12-15T13:27:20.433Z,14.27
2018-12-15T13:31:59.075Z,13.90
2018-12-15T13:36:37.857Z,15.17
2018-12-15T13:41:16.735Z,14.43
2018-12-15T13:45:55.648Z,14.43
2018-12-15T13:50:34.419Z,14.73
2018-12-15T13:55:13.204Z,14.57
2018-12-15T13:59:52.002Z,15.57
2018-12-15T14:04:30.896Z,13.90
2018-12-15T14:09:09.657Z,13.00
2018-12-15T14:13:58.566Z,15.63
2018-12-15T14:18:37.205Z,15.60
2018-12-15T14:23:16.037Z,14.57
2018-12-15T14:27:54.915Z,14.80
2018-12-15T14:32:33.616Z,16.17
2018-12-15T14:37:12.416Z,14.27
2018-12-15T14:41:51.089Z,12.47
2018-12-15T14:46:29.947Z,14.30
2018-12-15T14:51:08.789Z,15.93
2018-12-15T14:55:47.591Z,15.93
2018-12-15T15:00:26.659Z,16.87
2018-12-15T15:05:05.684Z,17.17
2018-12-15T15:09:44.644Z,15.07
2018-12-15T15:14:23.498Z,14.23
2018-12-15T15:19:02.190Z,15.80
2018-12-15T15:23:40.974Z,16.57
2018-12-15T15:28:19.893Z,16.60
2018-12-15T15:32:58.473Z,16.13
2018-12-15T15:37:37.260Z,16.33
2018-12-15T15:42:16.009Z,15.57
2018-12-15T15:46:54.904Z,17.23
2018-12-15T15:51:33.758Z,16.73
2018-12-15T15:56:12.410Z,17.33
2018-12-15T16:00:51.204Z,19.03
2018-12-15T16:05:29.996Z,18.13
2018-12-15T16:10:09.425Z,18.50
2018-12-15T16:14:48.130Z,18.17
2018-12-15T16:19:26.908Z,18.60
2018-12-15T16:24:05.541Z,19.47
2018-12-15T16:28:44.184Z,17.13
2018-12-15T16:33:22.932Z,17.07
2018-12-15T16:38:01.769Z,16.30
2018-12-15T16:42:40.617Z,16.37
2018-12-15T16:47:19.794Z,17.07
2018-12-15T16:51:58.693Z,16.00
2018-12-15T16:56:37.604Z,17.50
2018-12-15T17:01:16.487Z,18.37
2018-12-15T17:05:55.679Z,17.57
2018-12-15T17:10:34.699Z,18.97
2018-12-15T17:15:13.519Z,19.43
2018-12-15T17:19:52.310Z,18.37
2018-12-15T17:24:31.147Z,17.43
2018-12-15T17:29:09.916Z,18.33
2018-12-15T17:33:48.728Z,18.90
2018-12-15T17:38:27.478Z,17.87
2018-12-15T17:43:07.644Z,17.50
2018-12-15T17:47:52.801Z,18.30
2018-12-15T17:52:31.473Z,18.07
2018-12-15T17:57:10.355Z,16.37
2018-12-15T18:01:49.083Z,17.37
2018-12-15T18:06:27.916Z,18.77
2018-12-15T18:11:16.048Z,18.90
2018-12-15T18:15:55.048Z,18.87
2018-12-15T18:20:33.947Z,18.90
2018-12-15T18:25:12.880Z,20.10
2018-12-15T18:29:51.715Z,20.50
2018-12-15T18:34:30.396Z,17.30
2018-12-15T18:39:09.276Z,19.20
2018-12-15T18:43:47.987Z,19.23
2018-12-15T18:48:26.941Z,20.17
2018-12-15T18:53:05.739Z,19.50
2018-12-15T18:57:44.561Z,19.93
2018-12-15T19:02:23.687Z,20.87
2018-12-15T19:07:02.627Z,20.30
2018-12-15T19:11:41.296Z,21.00
2018-12-15T19:16:19.971Z,17.87
2018-12-15T19:20:58.822Z,19.30
2018-12-15T19:25:37.436Z,20.70
2018-12-15T19:30:16.380Z,21.87
2018-12-15T19:34:55.108Z,20.73
2018-12-15T19:39:33.860Z,19.93
2018-12-15T19:44:12.717Z,19.80
2018-12-15T19:48:51.400Z,19.67
2018-12-15T19:53:30.356Z,19.27
2018-12-15T19:58:09.072Z,21.73
2018-12-15T20:02:47.860Z,18.27
2018-12-15T20:07:26.885Z,18.33
2018-12-15T20:12:05.709Z,19.47
2018-12-15T20:16:44.388Z,19.87
2018-12-15T20:21:23.217Z,19.37
2018-12-15T20:26:02.104Z,18.90
2018-12-15T20:30:40.782Z,18.10
2018-12-15T20:35:19.558Z,21.60
2018-12-15T20:39:58.255Z,19.77
2018-12-15T20:44:41.688Z,20.07
2018-12-15T20:49:17.781Z,19.67
2018-12-15T20:53:56.825Z,18.57
2018-12-15T20:58:35.821Z,19.50
2018-12-15T21:03:14.757Z,18.83
2018-12-15T21:07:53.566Z,20.47
2018-12-15T21:12:32.276Z,19.17
2018-12-15T21:17:11.768Z,20.00
2018-12-15T21:21:50.737Z,19.13
2018-12-15T21:26:29.600Z,20.47
2018-12-15T21:31:08.201Z,20.50
2018-12-15T21:35:47.256Z,19.47
2018-12-15T21:40:26.201Z,21.60
2018-12-15T21:45:05.217Z,22.13
2018-12-15T21:49:43.988Z,18.70
2018-12-15T21:54:22.884Z,19.23
2018-12-15T21:59:02.016Z,19.97
2018-12-15T22:03:40.616Z,20.07
2018-12-15T22:08:19.489Z,21.07
2018-12-15T22:12:58.334Z,19.37
2018-12-15T22:17:36.952Z,19.33
2018-12-15T22:22:15.655Z,21.33
2018-12-15T22:26:54.382Z,22.03
2018-12-15T22:31:34.486Z,19.83
2018-12-15T22:36:13.448Z,19.57
2018-12-15T22:40:52.192Z,21.20
2018-12-15T22:45:31.062Z,19.73
2018-12-15T22:50:10.011Z,19.80
2018-12-15T22:54:48.775Z,20.67
2018-12-15T22:59:27.624Z,21.73
2018-12-15T23:04:06.295Z,20.87
2018-12-15T23:08:45.600Z,21.20
2018-12-15T23:13:24.315Z,19.67
2018-12-15T23:18:03.735Z,20.40
2018-12-15T23:22:42.596Z,20.43
2018-12-15T23:27:21.467Z,21.53
2018-12-15T23:32:00.512Z,20.30
2018-12-15T23:36:39.324Z,20.20
2018-12-15T23:41:18.108Z,21.10
2018-12-15T23:45:56.752Z,22.57
2018-12-15T23:50:35.598Z,20.33
2018-12-15T23:55:14.420Z,21.57
2018-12-15T23:59:53.247Z,21.73
